sensor_id;sensor_type;location;lat;lon;timestamp;temperature;humidity
19567;DHT22;9930;49.240;8.548;2022-07-23T00:00:22;28.10;52.60
19567;DHT22;9930;49.240;8.548;2022-07-23T00:02:58;28.10;52.70
19567;DHT22;9930;49.240;8.548;2022-07-23T00:05:25;28.10;52.70
19567;DHT22;9930;49.240;8.548;2022-07-23T00:07:52;28.00;52.70
19567;DHT22;9930;49.240;8.548;2022-07-23T00:10:18;28.00;52.90
19567;DHT22;9930;49.240;8.548;2022-07-23T00:12:44;28.00;53.00
19567;DHT22;9930;49.240;8.548;2022-07-23T00:15:10;28.00;53.00
19567;DHT22;9930;49.240;8.548;2022-07-23T00:17:40;27.90;53.10
19567;DHT22;9930;49.240;8.548;2022-07-23T00:20:09;27.90;53.10
19567;DHT22;9930;49.240;8.548;2022-07-23T00:22:53;27.90;53.30
19567;DHT22;9930;49.240;8.548;2022-07-23T00:25:23;27.90;53.90
19567;DHT22;9930;49.240;8.548;2022-07-23T00:27:52;27.90;53.60
19567;DHT22;9930;49.240;8.548;2022-07-23T00:30:18;27.80;53.70
19567;DHT22;9930;49.240;8.548;2022-07-23T00:32:55;27.80;53.80
19567;DHT22;9930;49.240;8.548;2022-07-23T00:35:29;27.80;53.90
19567;DHT22;9930;49.240;8.548;2022-07-23T00:37:57;27.70;54.10
19567;DHT22;9930;49.240;8.548;2022-07-23T00:40:24;27.70;54.10
19567;DHT22;9930;49.240;8.548;2022-07-23T00:42:57;27.70;54.20
19567;DHT22;9930;49.240;8.548;2022-07-23T00:45:25;27.60;54.40
19567;DHT22;9930;49.240;8.548;2022-07-23T00:47:55;27.60;54.40
19567;DHT22;9930;49.240;8.548;2022-07-23T00:50:22;27.60;54.40
19567;DHT22;9930;49.240;8.548;2022-07-23T00:52:51;27.60;55.10
19567;DHT22;9930;49.240;8.548;2022-07-23T00:55:20;27.50;54.40
19567;DHT22;9930;49.240;8.548;2022-07-23T00:57:50;27.50;54.40
19567;DHT22;9930;49.240;8.548;2022-07-23T01:00:16;27.50;54.40
19567;DHT22;9930;49.240;8.548;2022-07-23T01:02:43;27.40;54.30
19567;DHT22;9930;49.240;8.548;2022-07-23T01:05:09;27.40;54.40
19567;DHT22;9930;49.240;8.548;2022-07-23T01:07:38;27.40;54.40
19567;DHT22;9930;49.240;8.548;2022-07-23T01:10:07;27.30;54.30
19567;DHT22;9930;49.240;8.548;2022-07-23T01:13:11;27.30;54.30
19567;DHT22;9930;49.240;8.548;2022-07-23T01:15:38;27.20;54.20
19567;DHT22;9930;49.240;8.548;2022-07-23T01:18:09;27.20;54.20
19567;DHT22;9930;49.240;8.548;2022-07-23T01:20:36;27.20;54.20
19567;DHT22;9930;49.240;8.548;2022-07-23T01:23:02;27.20;54.10
19567;DHT22;9930;49.240;8.548;2022-07-23T01:25:28;27.20;54.00
19567;DHT22;9930;49.240;8.548;2022-07-23T01:27:57;27.10;53.90
19567;DHT22;9930;49.240;8.548;2022-07-23T01:30:23;27.00;53.80
19567;DHT22;9930;49.240;8.548;2022-07-23T01:32:48;27.00;53.70
19567;DHT22;9930;49.240;8.548;2022-07-23T01:35:19;27.00;53.70
19567;DHT22;9930;49.240;8.548;2022-07-23T01:37:47;26.90;53.70
19567;DHT22;9930;49.240;8.548;2022-07-23T01:40:13;27.00;53.80
19567;DHT22;9930;49.240;8.548;2022-07-23T01:42:41;26.90;53.70
19567;DHT22;9930;49.240;8.548;2022-07-23T01:45:09;27.00;54.40
19567;DHT22;9930;49.240;8.548;2022-07-23T01:47:35;27.00;53.70
19567;DHT22;9930;49.240;8.548;2022-07-23T01:50:01;27.00;53.60
19567;DHT22;9930;49.240;8.548;2022-07-23T01:52:29;27.00;53.70
19567;DHT22;9930;49.240;8.548;2022-07-23T01:54:57;27.00;53.60
19567;DHT22;9930;49.240;8.548;2022-07-23T01:57:23;26.90;53.50
19567;DHT22;9930;49.240;8.548;2022-07-23T01:59:52;26.90;53.40
19567;DHT22;9930;49.240;8.548;2022-07-23T02:02:17;26.90;53.40
19567;DHT22;9930;49.240;8.548;2022-07-23T02:04:46;26.80;53.40
19567;DHT22;9930;49.240;8.548;2022-07-23T02:07:11;26.80;53.50
19567;DHT22;9930;49.240;8.548;2022-07-23T02:09:39;26.70;53.50
19567;DHT22;9930;49.240;8.548;2022-07-23T02:12:08;26.70;53.60
19567;DHT22;9930;49.240;8.548;2022-07-23T02:14:36;26.70;54.20
19567;DHT22;9930;49.240;8.548;2022-07-23T02:17:02;26.70;53.70
19567;DHT22;9930;49.240;8.548;2022-07-23T02:19:34;26.70;53.70
19567;DHT22;9930;49.240;8.548;2022-07-23T02:22:00;26.60;53.70
19567;DHT22;9930;49.240;8.548;2022-07-23T02:24:28;26.60;53.70
19567;DHT22;9930;49.240;8.548;2022-07-23T02:26:55;26.60;53.70
19567;DHT22;9930;49.240;8.548;2022-07-23T02:29:23;26.50;53.80
19567;DHT22;9930;49.240;8.548;2022-07-23T02:31:49;26.50;53.90
19567;DHT22;9930;49.240;8.548;2022-07-23T02:34:14;26.50;54.00
19567;DHT22;9930;49.240;8.548;2022-07-23T02:36:42;26.50;54.10
19567;DHT22;9930;49.240;8.548;2022-07-23T02:39:08;26.40;54.10
19567;DHT22;9930;49.240;8.548;2022-07-23T02:41:36;26.40;54.10
19567;DHT22;9930;49.240;8.548;2022-07-23T02:44:06;26.40;54.20
19567;DHT22;9930;49.240;8.548;2022-07-23T02:46:32;26.30;54.70
19567;DHT22;9930;49.240;8.548;2022-07-23T02:48:58;26.30;54.20
19567;DHT22;9930;49.240;8.548;2022-07-23T02:51:28;26.30;54.20
19567;DHT22;9930;49.240;8.548;2022-07-23T02:53:57;26.30;54.50
19567;DHT22;9930;49.240;8.548;2022-07-23T02:56:23;26.30;54.50
19567;DHT22;9930;49.240;8.548;2022-07-23T02:58:49;26.30;54.50
19567;DHT22;9930;49.240;8.548;2022-07-23T03:01:17;26.30;54.60
19567;DHT22;9930;49.240;8.548;2022-07-23T03:03:43;26.30;54.70
19567;DHT22;9930;49.240;8.548;2022-07-23T03:06:16;26.20;54.60
19567;DHT22;9930;49.240;8.548;2022-07-23T03:08:42;26.30;54.70
19567;DHT22;9930;49.240;8.548;2022-07-23T03:11:08;26.30;54.80
19567;DHT22;9930;49.240;8.548;2022-07-23T03:13:37;26.30;54.80
19567;DHT22;9930;49.240;8.548;2022-07-23T03:16:04;26.30;55.00
19567;DHT22;9930;49.240;8.548;2022-07-23T03:18:32;26.30;54.90
19567;DHT22;9930;49.240;8.548;2022-07-23T03:20:58;26.30;54.90
19567;DHT22;9930;49.240;8.548;2022-07-23T03:23:25;26.30;54.90
19567;DHT22;9930;49.240;8.548;2022-07-23T03:25:51;26.30;55.00
19567;DHT22;9930;49.240;8.548;2022-07-23T03:28:22;26.30;55.10
19567;DHT22;9930;49.240;8.548;2022-07-23T03:30:50;26.30;55.30
19567;DHT22;9930;49.240;8.548;2022-07-23T03:33:19;26.30;55.40
19567;DHT22;9930;49.240;8.548;2022-07-23T03:35:47;26.30;55.50
19567;DHT22;9930;49.240;8.548;2022-07-23T03:38:13;26.30;55.50
19567;DHT22;9930;49.240;8.548;2022-07-23T03:40:39;26.20;55.40
19567;DHT22;9930;49.240;8.548;2022-07-23T03:43:06;26.20;55.90
19567;DHT22;9930;49.240;8.548;2022-07-23T03:45:34;26.20;55.30
19567;DHT22;9930;49.240;8.548;2022-07-23T03:48:02;26.10;55.30
19567;DHT22;9930;49.240;8.548;2022-07-23T03:50:30;26.10;55.40
19567;DHT22;9930;49.240;8.548;2022-07-23T03:52:56;26.10;55.50
19567;DHT22;9930;49.240;8.548;2022-07-23T03:55:22;26.10;55.50
19567;DHT22;9930;49.240;8.548;2022-07-23T03:57:50;26.10;56.20
19567;DHT22;9930;49.240;8.548;2022-07-23T04:00:16;26.00;55.90
19567;DHT22;9930;49.240;8.548;2022-07-23T04:02:42;26.00;56.00
19567;DHT22;9930;49.240;8.548;2022-07-23T04:05:10;26.00;56.00
19567;DHT22;9930;49.240;8.548;2022-07-23T04:07:38;26.00;56.10
19567;DHT22;9930;49.240;8.548;2022-07-23T04:10:06;26.00;56.00
19567;DHT22;9930;49.240;8.548;2022-07-23T04:12:32;26.00;56.20
19567;DHT22;9930;49.240;8.548;2022-07-23T04:14:58;26.00;56.20
19567;DHT22;9930;49.240;8.548;2022-07-23T04:17:25;25.90;56.30
19567;DHT22;9930;49.240;8.548;2022-07-23T04:19:51;25.90;56.60
19567;DHT22;9930;49.240;8.548;2022-07-23T04:22:18;25.90;56.60
19567;DHT22;9930;49.240;8.548;2022-07-23T04:24:44;25.90;56.80
19567;DHT22;9930;49.240;8.548;2022-07-23T04:27:09;25.90;56.90
19567;DHT22;9930;49.240;8.548;2022-07-23T04:29:35;25.90;57.00
19567;DHT22;9930;49.240;8.548;2022-07-23T04:32:01;25.90;57.10
19567;DHT22;9930;49.240;8.548;2022-07-23T04:34:27;25.90;57.50
19567;DHT22;9930;49.240;8.548;2022-07-23T04:36:55;25.90;57.60
19567;DHT22;9930;49.240;8.548;2022-07-23T04:39:26;25.80;57.70
19567;DHT22;9930;49.240;8.548;2022-07-23T04:41:52;25.80;57.70
19567;DHT22;9930;49.240;8.548;2022-07-23T04:44:21;25.80;57.70
19567;DHT22;9930;49.240;8.548;2022-07-23T04:46:49;25.80;57.70
19567;DHT22;9930;49.240;8.548;2022-07-23T04:49:19;25.80;57.90
19567;DHT22;9930;49.240;8.548;2022-07-23T04:51:44;25.80;57.90
19567;DHT22;9930;49.240;8.548;2022-07-23T04:54:12;25.70;57.90
19567;DHT22;9930;49.240;8.548;2022-07-23T04:56:40;25.70;58.00
19567;DHT22;9930;49.240;8.548;2022-07-23T04:59:06;25.70;58.00
19567;DHT22;9930;49.240;8.548;2022-07-23T05:01:31;25.70;57.90
19567;DHT22;9930;49.240;8.548;2022-07-23T05:03:59;25.70;58.00
19567;DHT22;9930;49.240;8.548;2022-07-23T05:06:25;25.70;58.10
19567;DHT22;9930;49.240;8.548;2022-07-23T05:08:52;25.70;58.30
19567;DHT22;9930;49.240;8.548;2022-07-23T05:11:18;25.70;58.60
19567;DHT22;9930;49.240;8.548;2022-07-23T05:13:45;25.70;59.00
19567;DHT22;9930;49.240;8.548;2022-07-23T05:16:13;25.60;58.90
19567;DHT22;9930;49.240;8.548;2022-07-23T05:18:44;25.60;59.10
19567;DHT22;9930;49.240;8.548;2022-07-23T05:21:11;25.60;59.40
19567;DHT22;9930;49.240;8.548;2022-07-23T05:23:37;25.60;59.70
19567;DHT22;9930;49.240;8.548;2022-07-23T05:26:03;25.60;59.90
19567;DHT22;9930;49.240;8.548;2022-07-23T05:28:28;25.60;60.30
19567;DHT22;9930;49.240;8.548;2022-07-23T05:30:54;25.60;60.20
19567;DHT22;9930;49.240;8.548;2022-07-23T05:33:20;25.60;60.30
19567;DHT22;9930;49.240;8.548;2022-07-23T05:35:50;25.60;60.10
19567;DHT22;9930;49.240;8.548;2022-07-23T05:38:17;25.50;60.40
19567;DHT22;9930;49.240;8.548;2022-07-23T05:40:43;25.60;60.40
19567;DHT22;9930;49.240;8.548;2022-07-23T05:43:09;25.60;60.60
19567;DHT22;9930;49.240;8.548;2022-07-23T05:45:37;25.60;61.00
19567;DHT22;9930;49.240;8.548;2022-07-23T05:48:03;25.60;61.20
19567;DHT22;9930;49.240;8.548;2022-07-23T05:50:29;25.60;61.20
19567;DHT22;9930;49.240;8.548;2022-07-23T05:52:57;25.70;61.60
19567;DHT22;9930;49.240;8.548;2022-07-23T05:55:25;25.70;61.80
19567;DHT22;9930;49.240;8.548;2022-07-23T05:57:51;25.70;61.50
19567;DHT22;9930;49.240;8.548;2022-07-23T06:00:21;25.70;61.30
19567;DHT22;9930;49.240;8.548;2022-07-23T06:02:50;25.70;61.30
19567;DHT22;9930;49.240;8.548;2022-07-23T06:05:16;25.70;61.40
19567;DHT22;9930;49.240;8.548;2022-07-23T06:07:44;25.70;61.30
19567;DHT22;9930;49.240;8.548;2022-07-23T06:10:10;25.70;61.20
19567;DHT22;9930;49.240;8.548;2022-07-23T06:12:36;25.80;61.10
19567;DHT22;9930;49.240;8.548;2022-07-23T06:15:05;25.80;60.90
19567;DHT22;9930;49.240;8.548;2022-07-23T06:17:31;25.80;60.80
19567;DHT22;9930;49.240;8.548;2022-07-23T06:19:57;25.80;60.90
19567;DHT22;9930;49.240;8.548;2022-07-23T06:22:25;25.80;61.10
19567;DHT22;9930;49.240;8.548;2022-07-23T06:24:55;25.80;60.90
19567;DHT22;9930;49.240;8.548;2022-07-23T06:27:26;25.90;61.20
19567;DHT22;9930;49.240;8.548;2022-07-23T06:29:53;25.80;61.30
19567;DHT22;9930;49.240;8.548;2022-07-23T06:32:23;25.80;61.00
19567;DHT22;9930;49.240;8.548;2022-07-23T06:34:49;25.80;60.90
19567;DHT22;9930;49.240;8.548;2022-07-23T06:37:20;25.70;61.00
19567;DHT22;9930;49.240;8.548;2022-07-23T06:39:46;25.70;61.40
19567;DHT22;9930;49.240;8.548;2022-07-23T06:42:11;25.70;61.60
19567;DHT22;9930;49.240;8.548;2022-07-23T06:44:37;25.70;61.60
19567;DHT22;9930;49.240;8.548;2022-07-23T06:47:11;25.80;61.60
19567;DHT22;9930;49.240;8.548;2022-07-23T06:49:36;25.70;61.70
19567;DHT22;9930;49.240;8.548;2022-07-23T06:52:05;25.70;61.80
19567;DHT22;9930;49.240;8.548;2022-07-23T06:54:34;25.70;62.20
19567;DHT22;9930;49.240;8.548;2022-07-23T06:57:00;25.70;62.20
19567;DHT22;9930;49.240;8.548;2022-07-23T06:59:28;25.70;62.20
19567;DHT22;9930;49.240;8.548;2022-07-23T07:01:58;25.60;62.60
19567;DHT22;9930;49.240;8.548;2022-07-23T07:04:24;25.70;62.80
19567;DHT22;9930;49.240;8.548;2022-07-23T07:06:50;25.70;63.00
19567;DHT22;9930;49.240;8.548;2022-07-23T07:09:16;25.80;63.10
19567;DHT22;9930;49.240;8.548;2022-07-23T07:11:41;25.90;63.10
19567;DHT22;9930;49.240;8.548;2022-07-23T07:14:07;26.00;63.10
19567;DHT22;9930;49.240;8.548;2022-07-23T07:16:35;26.00;62.80
19567;DHT22;9930;49.240;8.548;2022-07-23T07:19:03;26.10;62.40
19567;DHT22;9930;49.240;8.548;2022-07-23T07:21:29;26.10;62.10
19567;DHT22;9930;49.240;8.548;2022-07-23T07:23:58;26.20;61.90
19567;DHT22;9930;49.240;8.548;2022-07-23T07:26:24;26.30;61.70
19567;DHT22;9930;49.240;8.548;2022-07-23T07:28:50;26.30;62.10
19567;DHT22;9930;49.240;8.548;2022-07-23T07:31:18;26.50;62.40
19567;DHT22;9930;49.240;8.548;2022-07-23T07:33:46;26.60;62.30
19567;DHT22;9930;49.240;8.548;2022-07-23T07:36:14;26.70;61.80
19567;DHT22;9930;49.240;8.548;2022-07-23T07:38:40;26.80;61.20
19567;DHT22;9930;49.240;8.548;2022-07-23T07:41:08;26.80;60.70
19567;DHT22;9930;49.240;8.548;2022-07-23T07:43:36;26.90;60.40
19567;DHT22;9930;49.240;8.548;2022-07-23T07:46:03;27.00;60.50
19567;DHT22;9930;49.240;8.548;2022-07-23T07:48:29;27.00;60.40
19567;DHT22;9930;49.240;8.548;2022-07-23T07:50:55;27.10;60.20
19567;DHT22;9930;49.240;8.548;2022-07-23T07:53:22;27.10;60.40
19567;DHT22;9930;49.240;8.548;2022-07-23T07:55:52;27.20;60.70
19567;DHT22;9930;49.240;8.548;2022-07-23T07:58:22;27.30;61.10
19567;DHT22;9930;49.240;8.548;2022-07-23T08:00:55;27.40;61.40
19567;DHT22;9930;49.240;8.548;2022-07-23T08:03:28;27.60;61.30
19567;DHT22;9930;49.240;8.548;2022-07-23T08:05:55;27.70;61.30
19567;DHT22;9930;49.240;8.548;2022-07-23T08:08:25;27.90;61.10
19567;DHT22;9930;49.240;8.548;2022-07-23T08:10:51;28.10;60.90
19567;DHT22;9930;49.240;8.548;2022-07-23T08:13:25;28.30;60.30
19567;DHT22;9930;49.240;8.548;2022-07-23T08:15:55;28.40;59.70
19567;DHT22;9930;49.240;8.548;2022-07-23T08:18:23;28.40;59.30
19567;DHT22;9930;49.240;8.548;2022-07-23T08:20:49;28.50;59.10
19567;DHT22;9930;49.240;8.548;2022-07-23T08:23:15;28.60;58.80
19567;DHT22;9930;49.240;8.548;2022-07-23T08:25:46;28.60;58.60
19567;DHT22;9930;49.240;8.548;2022-07-23T08:28:13;28.60;58.30
19567;DHT22;9930;49.240;8.548;2022-07-23T08:30:41;28.70;58.30
19567;DHT22;9930;49.240;8.548;2022-07-23T08:33:14;28.70;58.30
19567;DHT22;9930;49.240;8.548;2022-07-23T08:35:46;28.70;58.20
19567;DHT22;9930;49.240;8.548;2022-07-23T08:38:15;28.70;58.20
19567;DHT22;9930;49.240;8.548;2022-07-23T08:40:50;28.70;58.00
19567;DHT22;9930;49.240;8.548;2022-07-23T08:43:20;28.60;57.80
19567;DHT22;9930;49.240;8.548;2022-07-23T08:45:52;28.60;57.80
19567;DHT22;9930;49.240;8.548;2022-07-23T08:48:26;28.60;57.90
19567;DHT22;9930;49.240;8.548;2022-07-23T08:50:59;28.60;57.90
19567;DHT22;9930;49.240;8.548;2022-07-23T08:53:29;28.70;58.20
19567;DHT22;9930;49.240;8.548;2022-07-23T08:55:58;28.80;58.60
19567;DHT22;9930;49.240;8.548;2022-07-23T08:58:27;28.90;58.50
19567;DHT22;9930;49.240;8.548;2022-07-23T09:00:56;29.00;58.00
19567;DHT22;9930;49.240;8.548;2022-07-23T09:03:29;29.10;57.60
19567;DHT22;9930;49.240;8.548;2022-07-23T09:06:04;29.20;57.10
19567;DHT22;9930;49.240;8.548;2022-07-23T09:11:02;29.30;57.00
19567;DHT22;9930;49.240;8.548;2022-07-23T09:18:43;29.20;56.60
19567;DHT22;9930;49.240;8.548;2022-07-23T09:23:50;29.00;56.80
19567;DHT22;9930;49.240;8.548;2022-07-23T09:29:11;29.10;57.20
19567;DHT22;9930;49.240;8.548;2022-07-23T09:32:02;29.10;57.00
19567;DHT22;9930;49.240;8.548;2022-07-23T09:34:35;29.10;56.80
19567;DHT22;9930;49.240;8.548;2022-07-23T09:37:12;29.10;56.60
19567;DHT22;9930;49.240;8.548;2022-07-23T09:39:39;29.10;56.30
19567;DHT22;9930;49.240;8.548;2022-07-23T09:42:18;29.10;56.40
19567;DHT22;9930;49.240;8.548;2022-07-23T09:44:47;29.10;56.80
19567;DHT22;9930;49.240;8.548;2022-07-23T09:47:22;29.30;57.30
19567;DHT22;9930;49.240;8.548;2022-07-23T09:50:07;29.40;57.00
19567;DHT22;9930;49.240;8.548;2022-07-23T09:52:48;29.40;56.20
19567;DHT22;9930;49.240;8.548;2022-07-23T09:55:15;29.60;56.40
19567;DHT22;9930;49.240;8.548;2022-07-23T09:57:43;29.60;56.10
19567;DHT22;9930;49.240;8.548;2022-07-23T10:00:11;29.70;55.90
19567;DHT22;9930;49.240;8.548;2022-07-23T10:02:38;29.80;56.00
19567;DHT22;9930;49.240;8.548;2022-07-23T10:05:05;29.90;55.80
19567;DHT22;9930;49.240;8.548;2022-07-23T10:07:34;29.90;55.80
19567;DHT22;9930;49.240;8.548;2022-07-23T10:10:04;30.00;56.10
19567;DHT22;9930;49.240;8.548;2022-07-23T10:12:36;30.00;55.10
19567;DHT22;9930;49.240;8.548;2022-07-23T10:15:04;30.10;55.10
19567;DHT22;9930;49.240;8.548;2022-07-23T10:17:32;30.10;55.40
19567;DHT22;9930;49.240;8.548;2022-07-23T10:19:58;30.20;55.30
19567;DHT22;9930;49.240;8.548;2022-07-23T10:22:30;30.30;55.30
19567;DHT22;9930;49.240;8.548;2022-07-23T10:25:32;30.40;55.10
19567;DHT22;9930;49.240;8.548;2022-07-23T10:28:40;30.40;54.40
19567;DHT22;9930;49.240;8.548;2022-07-23T10:31:20;30.50;54.20
19567;DHT22;9930;49.240;8.548;2022-07-23T10:37:43;30.60;53.70
19567;DHT22;9930;49.240;8.548;2022-07-23T10:42:43;30.90;54.20
19567;DHT22;9930;49.240;8.548;2022-07-23T10:45:31;31.00;54.20
19567;DHT22;9930;49.240;8.548;2022-07-23T10:48:21;31.00;53.50
19567;DHT22;9930;49.240;8.548;2022-07-23T10:51:16;31.10;53.30
19567;DHT22;9930;49.240;8.548;2022-07-23T10:57:15;31.20;52.20
19567;DHT22;9930;49.240;8.548;2022-07-23T11:02:39;31.20;51.70
19567;DHT22;9930;49.240;8.548;2022-07-23T11:05:08;31.30;52.10
19567;DHT22;9930;49.240;8.548;2022-07-23T11:08:09;31.30;51.90
19567;DHT22;9930;49.240;8.548;2022-07-23T11:32:04;31.70;51.00
19567;DHT22;9930;49.240;8.548;2022-07-23T11:34:45;31.80;51.00
19567;DHT22;9930;49.240;8.548;2022-07-23T11:40:08;31.90;50.60
19567;DHT22;9930;49.240;8.548;2022-07-23T11:42:40;32.00;50.90
19567;DHT22;9930;49.240;8.548;2022-07-23T11:45:18;32.10;51.40
19567;DHT22;9930;49.240;8.548;2022-07-23T11:47:44;32.10;50.40
19567;DHT22;9930;49.240;8.548;2022-07-23T11:50:09;32.20;50.20
19567;DHT22;9930;49.240;8.548;2022-07-23T11:52:40;32.20;49.90
19567;DHT22;9930;49.240;8.548;2022-07-23T11:55:10;32.20;49.60
19567;DHT22;9930;49.240;8.548;2022-07-23T11:57:38;32.20;49.50
19567;DHT22;9930;49.240;8.548;2022-07-23T12:00:17;32.20;49.70
19567;DHT22;9930;49.240;8.548;2022-07-23T12:02:48;32.10;49.70
19567;DHT22;9930;49.240;8.548;2022-07-23T12:05:21;32.10;49.50
19567;DHT22;9930;49.240;8.548;2022-07-23T12:07:55;32.10;49.40
19567;DHT22;9930;49.240;8.548;2022-07-23T12:10:34;32.10;49.40
19567;DHT22;9930;49.240;8.548;2022-07-23T12:13:03;32.10;49.10
19567;DHT22;9930;49.240;8.548;2022-07-23T12:15:35;32.20;48.90
19567;DHT22;9930;49.240;8.548;2022-07-23T12:18:07;32.30;48.90
19567;DHT22;9930;49.240;8.548;2022-07-23T12:20:37;32.40;48.90
19567;DHT22;9930;49.240;8.548;2022-07-23T12:23:07;32.40;48.80
19567;DHT22;9930;49.240;8.548;2022-07-23T12:25:36;32.60;48.60
19567;DHT22;9930;49.240;8.548;2022-07-23T12:28:10;32.70;48.10
19567;DHT22;9930;49.240;8.548;2022-07-23T12:33:07;32.90;47.90
19567;DHT22;9930;49.240;8.548;2022-07-23T12:35:43;32.90;47.60
19567;DHT22;9930;49.240;8.548;2022-07-23T12:38:18;33.00;47.70
19567;DHT22;9930;49.240;8.548;2022-07-23T12:40:56;33.10;47.40
19567;DHT22;9930;49.240;8.548;2022-07-23T12:43:27;33.10;47.00
19567;DHT22;9930;49.240;8.548;2022-07-23T12:48:51;33.20;46.20
19567;DHT22;9930;49.240;8.548;2022-07-23T12:51:27;33.30;46.60
19567;DHT22;9930;49.240;8.548;2022-07-23T12:56:33;33.40;47.10
19567;DHT22;9930;49.240;8.548;2022-07-23T13:01:39;33.60;47.00
19567;DHT22;9930;49.240;8.548;2022-07-23T13:04:15;33.60;46.40
19567;DHT22;9930;49.240;8.548;2022-07-23T13:06:49;33.70;46.10
19567;DHT22;9930;49.240;8.548;2022-07-23T13:09:22;33.70;46.50
19567;DHT22;9930;49.240;8.548;2022-07-23T13:11:53;33.70;46.30
19567;DHT22;9930;49.240;8.548;2022-07-23T13:14:27;33.70;46.10
19567;DHT22;9930;49.240;8.548;2022-07-23T13:16:55;33.70;46.10
19567;DHT22;9930;49.240;8.548;2022-07-23T13:19:26;33.70;45.80
19567;DHT22;9930;49.240;8.548;2022-07-23T13:21:55;33.70;45.50
19567;DHT22;9930;49.240;8.548;2022-07-23T13:24:22;33.60;45.50
19567;DHT22;9930;49.240;8.548;2022-07-23T13:26:51;33.60;45.40
19567;DHT22;9930;49.240;8.548;2022-07-23T13:29:21;33.60;45.40
19567;DHT22;9930;49.240;8.548;2022-07-23T13:31:48;33.50;45.80
19567;DHT22;9930;49.240;8.548;2022-07-23T13:34:16;33.60;45.60
19567;DHT22;9930;49.240;8.548;2022-07-23T13:36:42;33.60;45.50
19567;DHT22;9930;49.240;8.548;2022-07-23T13:39:10;33.60;45.20
19567;DHT22;9930;49.240;8.548;2022-07-23T13:41:37;33.60;45.30
19567;DHT22;9930;49.240;8.548;2022-07-23T13:44:04;33.60;45.20
19567;DHT22;9930;49.240;8.548;2022-07-23T13:46:32;33.60;45.10
19567;DHT22;9930;49.240;8.548;2022-07-23T13:48:58;33.60;45.20
19567;DHT22;9930;49.240;8.548;2022-07-23T13:51:29;33.50;44.60
19567;DHT22;9930;49.240;8.548;2022-07-23T13:53:54;33.40;44.60
19567;DHT22;9930;49.240;8.548;2022-07-23T13:56:29;33.40;44.80
19567;DHT22;9930;49.240;8.548;2022-07-23T13:58:56;33.20;45.40
19567;DHT22;9930;49.240;8.548;2022-07-23T14:01:22;33.20;44.90
19567;DHT22;9930;49.240;8.548;2022-07-23T14:03:48;33.10;44.80
19567;DHT22;9930;49.240;8.548;2022-07-23T14:06:14;33.00;44.80
19567;DHT22;9930;49.240;8.548;2022-07-23T14:08:39;33.00;44.80
19567;DHT22;9930;49.240;8.548;2022-07-23T14:11:05;32.90;44.80
19567;DHT22;9930;49.240;8.548;2022-07-23T14:13:31;32.80;44.90
19567;DHT22;9930;49.240;8.548;2022-07-23T14:15:59;32.80;45.20
19567;DHT22;9930;49.240;8.548;2022-07-23T14:18:25;32.80;45.30
19567;DHT22;9930;49.240;8.548;2022-07-23T14:20:51;32.80;45.30
19567;DHT22;9930;49.240;8.548;2022-07-23T14:23:21;32.70;45.20
19567;DHT22;9930;49.240;8.548;2022-07-23T14:25:47;32.70;45.10
19567;DHT22;9930;49.240;8.548;2022-07-23T14:28:15;32.70;45.20
19567;DHT22;9930;49.240;8.548;2022-07-23T14:30:43;32.70;45.10
19567;DHT22;9930;49.240;8.548;2022-07-23T14:33:09;32.60;45.30
19567;DHT22;9930;49.240;8.548;2022-07-23T14:35:38;32.60;45.30
19567;DHT22;9930;49.240;8.548;2022-07-23T14:38:04;32.60;45.40
19567;DHT22;9930;49.240;8.548;2022-07-23T14:40:30;32.50;45.40
19567;DHT22;9930;49.240;8.548;2022-07-23T14:42:56;32.50;45.30
19567;DHT22;9930;49.240;8.548;2022-07-23T14:45:22;32.40;45.30
19567;DHT22;9930;49.240;8.548;2022-07-23T14:47:49;32.30;45.40
19567;DHT22;9930;49.240;8.548;2022-07-23T14:50:15;32.30;45.80
19567;DHT22;9930;49.240;8.548;2022-07-23T14:52:43;32.20;46.10
19567;DHT22;9930;49.240;8.548;2022-07-23T14:55:09;32.10;46.20
19567;DHT22;9930;49.240;8.548;2022-07-23T14:57:37;32.00;46.20
19567;DHT22;9930;49.240;8.548;2022-07-23T15:00:06;32.00;46.50
19567;DHT22;9930;49.240;8.548;2022-07-23T15:02:35;31.90;46.60
19567;DHT22;9930;49.240;8.548;2022-07-23T15:05:03;32.00;46.60
19567;DHT22;9930;49.240;8.548;2022-07-23T15:07:34;32.00;46.50
19567;DHT22;9930;49.240;8.548;2022-07-23T15:10:00;32.00;46.50
19567;DHT22;9930;49.240;8.548;2022-07-23T15:12:26;32.10;46.30
19567;DHT22;9930;49.240;8.548;2022-07-23T15:14:56;32.10;46.30
19567;DHT22;9930;49.240;8.548;2022-07-23T15:17:26;32.20;46.20
19567;DHT22;9930;49.240;8.548;2022-07-23T15:19:55;32.20;46.10
19567;DHT22;9930;49.240;8.548;2022-07-23T15:22:28;32.30;46.00
19567;DHT22;9930;49.240;8.548;2022-07-23T15:24:56;32.40;45.80
19567;DHT22;9930;49.240;8.548;2022-07-23T15:27:23;32.40;45.60
19567;DHT22;9930;49.240;8.548;2022-07-23T15:29:51;32.50;45.30
19567;DHT22;9930;49.240;8.548;2022-07-23T15:32:17;32.50;45.20
19567;DHT22;9930;49.240;8.548;2022-07-23T15:34:45;32.50;45.30
19567;DHT22;9930;49.240;8.548;2022-07-23T15:37:11;32.60;45.30
19567;DHT22;9930;49.240;8.548;2022-07-23T15:39:38;32.60;44.90
19567;DHT22;9930;49.240;8.548;2022-07-23T15:42:04;32.60;44.90
19567;DHT22;9930;49.240;8.548;2022-07-23T15:44:30;32.60;44.90
19567;DHT22;9930;49.240;8.548;2022-07-23T15:46:57;32.60;45.10
19567;DHT22;9930;49.240;8.548;2022-07-23T15:49:28;32.60;44.70
19567;DHT22;9930;49.240;8.548;2022-07-23T15:51:56;32.60;44.50
19567;DHT22;9930;49.240;8.548;2022-07-23T15:54:23;32.60;44.50
19567;DHT22;9930;49.240;8.548;2022-07-23T15:56:51;32.60;44.70
19567;DHT22;9930;49.240;8.548;2022-07-23T15:59:21;32.60;44.50
19567;DHT22;9930;49.240;8.548;2022-07-23T16:01:50;32.60;44.50
19567;DHT22;9930;49.240;8.548;2022-07-23T16:04:16;32.60;44.60
19567;DHT22;9930;49.240;8.548;2022-07-23T16:06:44;32.60;44.70
19567;DHT22;9930;49.240;8.548;2022-07-23T16:09:10;32.60;44.40
19567;DHT22;9930;49.240;8.548;2022-07-23T16:11:36;32.60;44.30
19567;DHT22;9930;49.240;8.548;2022-07-23T16:14:01;32.60;44.20
19567;DHT22;9930;49.240;8.548;2022-07-23T16:16:27;32.50;44.30
19567;DHT22;9930;49.240;8.548;2022-07-23T16:18:54;32.50;45.10
19567;DHT22;9930;49.240;8.548;2022-07-23T16:21:20;32.50;44.60
19567;DHT22;9930;49.240;8.548;2022-07-23T16:23:48;32.50;44.50
19567;DHT22;9930;49.240;8.548;2022-07-23T16:26:17;32.50;44.50
19567;DHT22;9930;49.240;8.548;2022-07-23T16:28:46;32.50;44.40
19567;DHT22;9930;49.240;8.548;2022-07-23T16:31:12;32.50;44.30
19567;DHT22;9930;49.240;8.548;2022-07-23T16:33:38;32.50;44.10
19567;DHT22;9930;49.240;8.548;2022-07-23T16:36:06;32.50;44.00
19567;DHT22;9930;49.240;8.548;2022-07-23T16:38:39;32.50;44.10
19567;DHT22;9930;49.240;8.548;2022-07-23T16:41:05;32.40;44.00
19567;DHT22;9930;49.240;8.548;2022-07-23T16:43:35;32.40;44.10
19567;DHT22;9930;49.240;8.548;2022-07-23T16:46:04;32.40;44.10
19567;DHT22;9930;49.240;8.548;2022-07-23T16:48:30;32.40;44.30
19567;DHT22;9930;49.240;8.548;2022-07-23T16:50:57;32.30;44.30
19567;DHT22;9930;49.240;8.548;2022-07-23T16:53:25;32.30;44.30
19567;DHT22;9930;49.240;8.548;2022-07-23T16:55:53;32.30;44.30